sensor_id;sensor_type;location;lat;lon;timestamp;pressure;altitude;pressure_sealevel;temperature;humidity
15444;BME280;7822;48.146;11.576;2023-03-31T00:01:31;94719.00;;;14.66;64.31
15444;BME280;7822;48.146;11.576;2023-03-31T00:04:00;94724.06;;;14.67;64.26
15444;BME280;7822;48.146;11.576;2023-03-31T00:06:33;94707.59;;;14.67;64.19
15444;BME280;7822;48.146;11.576;2023-03-31T00:09:04;94719.00;;;14.66;64.42
15444;BME280;7822;48.146;11.576;2023-03-31T00:11:32;94705.97;;;14.66;64.04
15444;BME280;7822;48.146;11.576;2023-03-31T00:14:00;94704.34;;;14.65;64.08
15444;BME280;7822;48.146;11.576;2023-03-31T00:16:28;94698.13;;;14.66;64.38
15444;BME280;7822;48.146;11.576;2023-03-31T00:18:55;94692.09;;;14.65;64.26
15444;BME280;7822;48.146;11.576;2023-03-31T00:21:23;94686.06;;;14.65;64.13
15444;BME280;7822;48.146;11.576;2023-03-31T00:23:58;94681.81;;;14.64;64.51
15444;BME280;7822;48.146;11.576;2023-03-31T00:26:26;94681.00;;;14.63;64.36
15444;BME280;7822;48.146;11.576;2023-03-31T00:28:55;94679.19;;;14.64;64.42
15444;BME280;7822;48.146;11.576;2023-03-31T00:31:23;94680.03;;;14.64;64.39
15444;BME280;7822;48.146;11.576;2023-03-31T00:33:52;94675.75;;;14.63;64.21
15444;BME280;7822;48.146;11.576;2023-03-31T00:36:21;94672.19;;;14.64;64.33
15444;BME280;7822;48.146;11.576;2023-03-31T00:38:53;94667.94;;;14.63;64.06
15444;BME280;7822;48.146;11.576;2023-03-31T00:41:22;94662.72;;;14.63;64.49
15444;BME280;7822;48.146;11.576;2023-03-31T00:44:04;94656.66;;;14.63;64.53
15444;BME280;7822;48.146;11.576;2023-03-31T00:46:36;94648.03;;;14.62;64.55
15444;BME280;7822;48.146;11.576;2023-03-31T00:49:13;94644.63;;;14.62;64.43
15444;BME280;7822;48.146;11.576;2023-03-31T00:51:43;94641.19;;;14.61;64.55
15444;BME280;7822;48.146;11.576;2023-03-31T00:54:12;94636.78;;;14.62;64.37
15444;BME280;7822;48.146;11.576;2023-03-31T00:56:44;94635.78;;;14.63;64.49
15444;BME280;7822;48.146;11.576;2023-03-31T00:59:14;94628.13;;;14.61;64.32
15444;BME280;7822;48.146;11.576;2023-03-31T01:01:44;94626.34;;;14.62;64.43
15444;BME280;7822;48.146;11.576;2023-03-31T01:04:15;94625.34;;;14.63;64.43
15444;BME280;7822;48.146;11.576;2023-03-31T01:06:54;94614.13;;;14.62;64.29
15444;BME280;7822;48.146;11.576;2023-03-31T01:09:28;94611.50;;;14.62;64.36
15444;BME280;7822;48.146;11.576;2023-03-31T01:12:05;94611.63;;;14.61;64.24
15444;BME280;7822;48.146;11.576;2023-03-31T01:14:35;94610.50;;;14.63;64.22
15444;BME280;7822;48.146;11.576;2023-03-31T01:17:03;94600.22;;;14.62;64.13
15444;BME280;7822;48.146;11.576;2023-03-31T01:19:42;94601.06;;;14.62;64.12
15444;BME280;7822;48.146;11.576;2023-03-31T01:22:41;94591.41;;;14.63;64.57
15444;BME280;7822;48.146;11.576;2023-03-31T01:28:25;94585.41;;;14.62;64.29
15444;BME280;7822;48.146;11.576;2023-03-31T01:34:09;94565.16;;;14.64;64.19
15444;BME280;7822;48.146;11.576;2023-03-31T01:37:12;94568.75;;;14.63;64.13
15444;BME280;7822;48.146;11.576;2023-03-31T01:40:16;94564.50;;;14.62;64.25
15444;BME280;7822;48.146;11.576;2023-03-31T01:42:51;94568.91;;;14.62;64.33
15444;BME280;7822;48.146;11.576;2023-03-31T01:45:27;94561.72;;;14.64;64.33
15444;BME280;7822;48.146;11.576;2023-03-31T01:48:01;94564.34;;;14.64;64.34
15444;BME280;7822;48.146;11.576;2023-03-31T01:50:37;94562.69;;;14.63;64.41
15444;BME280;7822;48.146;11.576;2023-03-31T01:53:15;94547.84;;;14.63;64.33
15444;BME280;7822;48.146;11.576;2023-03-31T01:55:50;94555.69;;;14.63;64.32
15444;BME280;7822;48.146;11.576;2023-03-31T01:58:24;94539.19;;;14.63;64.04
15444;BME280;7822;48.146;11.576;2023-03-31T02:00:58;94540.19;;;14.62;64.41
15444;BME280;7822;48.146;11.576;2023-03-31T02:03:30;94533.19;;;14.62;64.17
15444;BME280;7822;48.146;11.576;2023-03-31T02:06:05;94528.13;;;14.61;64.09
15444;BME280;7822;48.146;11.576;2023-03-31T02:08:39;94525.50;;;14.61;64.29
15444;BME280;7822;48.146;11.576;2023-03-31T02:11:11;94520.28;;;14.61;64.44
15444;BME280;7822;48.146;11.576;2023-03-31T02:13:40;94518.50;;;14.61;64.22
15444;BME280;7822;48.146;11.576;2023-03-31T02:16:12;94521.09;;;14.61;64.27
15444;BME280;7822;48.146;11.576;2023-03-31T02:18:43;94510.00;;;14.59;64.76
15444;BME280;7822;48.146;11.576;2023-03-31T02:21:13;94512.63;;;14.59;64.57
15444;BME280;7822;48.146;11.576;2023-03-31T02:23:42;94502.34;;;14.58;64.37
15444;BME280;7822;48.146;11.576;2023-03-31T02:26:14;94505.75;;;14.58;64.39
15444;BME280;7822;48.146;11.576;2023-03-31T02:28:43;94514.28;;;14.60;64.57
15444;BME280;7822;48.146;11.576;2023-03-31T02:31:23;94508.22;;;14.60;64.47
15444;BME280;7822;48.146;11.576;2023-03-31T02:33:52;94511.66;;;14.60;64.17
15444;BME280;7822;48.146;11.576;2023-03-31T02:36:20;94512.63;;;14.59;64.39
15444;BME280;7822;48.146;11.576;2023-03-31T02:38:51;94508.22;;;14.60;64.56
15444;BME280;7822;48.146;11.576;2023-03-31T02:41:22;94509.84;;;14.61;64.56
15444;BME280;7822;48.146;11.576;2023-03-31T02:43:50;94510.84;;;14.60;64.47
15444;BME280;7822;48.146;11.576;2023-03-31T02:46:18;94514.28;;;14.60;64.54
15444;BME280;7822;48.146;11.576;2023-03-31T02:48:47;94509.06;;;14.60;64.51
15444;BME280;7822;48.146;11.576;2023-03-31T02:51:30;94504.78;;;14.59;64.37
15444;BME280;7822;48.146;11.576;2023-03-31T02:54:42;94502.84;;;14.61;64.60
15444;BME280;7822;48.146;11.576;2023-03-31T02:57:39;94496.78;;;14.61;64.40
15444;BME280;7822;48.146;11.576;2023-03-31T03:00:21;94490.78;;;14.60;64.54
15444;BME280;7822;48.146;11.576;2023-03-31T03:03:00;94488.97;;;14.61;64.39
15444;BME280;7822;48.146;11.576;2023-03-31T03:05:40;94481.13;;;14.61;64.43
15444;BME280;7822;48.146;11.576;2023-03-31T03:08:19;94490.59;;;14.62;64.54
15444;BME280;7822;48.146;11.576;2023-03-31T03:10:59;94487.34;;;14.60;64.45
15444;BME280;7822;48.146;11.576;2023-03-31T03:13:34;94489.78;;;14.61;64.46
15444;BME280;7822;48.146;11.576;2023-03-31T03:16:10;94490.78;;;14.60;64.42
15444;BME280;7822;48.146;11.576;2023-03-31T03:18:39;94500.41;;;14.60;64.65
15444;BME280;7822;48.146;11.576;2023-03-31T03:21:07;94506.44;;;14.60;64.42
15444;BME280;7822;48.146;11.576;2023-03-31T03:23:34;94501.22;;;14.60;64.45
15444;BME280;7822;48.146;11.576;2023-03-31T03:26:02;94515.06;;;14.61;64.44
15444;BME280;7822;48.146;11.576;2023-03-31T03:28:31;94515.06;;;14.61;64.42
15444;BME280;7822;48.146;11.576;2023-03-31T03:30:59;94519.50;;;14.60;64.71
15444;BME280;7822;48.146;11.576;2023-03-31T03:33:27;94520.28;;;14.61;64.50
15444;BME280;7822;48.146;11.576;2023-03-31T03:35:54;94522.88;;;14.61;64.64
15444;BME280;7822;48.146;11.576;2023-03-31T03:38:22;94528.28;;;14.59;64.34
15444;BME280;7822;48.146;11.576;2023-03-31T03:40:52;94530.72;;;14.61;64.73
15444;BME280;7822;48.146;11.576;2023-03-31T03:43:20;94535.94;;;14.61;64.42
15444;BME280;7822;48.146;11.576;2023-03-31T03:45:49;94532.53;;;14.60;64.51
15444;BME280;7822;48.146;11.576;2023-03-31T03:48:17;94524.72;;;14.60;64.77
15444;BME280;7822;48.146;11.576;2023-03-31T03:50:45;94513.44;;;14.60;64.64
15444;BME280;7822;48.146;11.576;2023-03-31T03:53:13;94516.19;;;14.58;64.39
15444;BME280;7822;48.146;11.576;2023-03-31T03:55:41;94503.00;;;14.60;64.51
15444;BME280;7822;48.146;11.576;2023-03-31T03:58:10;94490.78;;;14.60;64.81
15444;BME280;7822;48.146;11.576;2023-03-31T04:00:38;94491.09;;;14.57;64.80
15444;BME280;7822;48.146;11.576;2023-03-31T04:03:07;94478.88;;;14.58;64.60
15444;BME280;7822;48.146;11.576;2023-03-31T04:05:34;94463.22;;;14.58;64.61
15444;BME280;7822;48.146;11.576;2023-03-31T04:08:02;94455.38;;;14.58;64.74
15444;BME280;7822;48.146;11.576;2023-03-31T04:10:31;94454.22;;;14.60;64.75
15444;BME280;7822;48.146;11.576;2023-03-31T04:12:59;94452.41;;;14.61;64.38
15444;BME280;7822;48.146;11.576;2023-03-31T04:15:26;94448.03;;;14.61;64.54
15444;BME280;7822;48.146;11.576;2023-03-31T04:17:54;94439.22;;;14.62;64.40
15444;BME280;7822;48.146;11.576;2023-03-31T04:20:25;94439.22;;;14.62;64.51
15444;BME280;7822;48.146;11.576;2023-03-31T04:22:56;94430.38;;;14.63;64.47
15444;BME280;7822;48.146;11.576;2023-03-31T04:25:24;94418.81;;;14.66;64.39
15444;BME280;7822;48.146;11.576;2023-03-31T04:27:51;94411.97;;;14.65;64.55
15444;BME280;7822;48.146;11.576;2023-03-31T04:30:22;94402.31;;;14.65;64.24
15444;BME280;7822;48.146;11.576;2023-03-31T04:32:50;94403.97;;;14.66;64.74
15444;BME280;7822;48.146;11.576;2023-03-31T04:35:19;94394.34;;;14.67;64.44
15444;BME280;7822;48.146;11.576;2023-03-31T04:37:49;94379.47;;;14.67;64.39
15444;BME280;7822;48.146;11.576;2023-03-31T04:40:17;94370.84;;;14.67;64.41
15444;BME280;7822;48.146;11.576;2023-03-31T04:42:45;94369.84;;;14.68;64.29
15444;BME280;7822;48.146;11.576;2023-03-31T04:45:13;94381.13;;;14.68;64.63
15444;BME280;7822;48.146;11.576;2023-03-31T04:47:40;94381.13;;;14.68;64.41
15444;BME280;7822;48.146;11.576;2023-03-31T04:50:09;94381.94;;;14.69;64.64
15444;BME280;7822;48.146;11.576;2023-03-31T04:52:42;94375.91;;;14.68;64.37
15444;BME280;7822;48.146;11.576;2023-03-31T04:55:11;94366.28;;;14.69;64.54
15444;BME280;7822;48.146;11.576;2023-03-31T04:57:38;94340.94;;;14.69;64.38
15444;BME280;7822;48.146;11.576;2023-03-31T05:00:08;94319.28;;;14.69;64.25
15444;BME280;7822;48.146;11.576;2023-03-31T05:02:36;94300.19;;;14.68;64.53
15444;BME280;7822;48.146;11.576;2023-03-31T05:05:04;94296.75;;;14.68;64.50
15444;BME280;7822;48.146;11.576;2023-03-31T05:07:32;94293.19;;;14.69;64.32
15444;BME280;7822;48.146;11.576;2023-03-31T05:10:00;94279.31;;;14.68;64.57
15444;BME280;7822;48.146;11.576;2023-03-31T05:12:29;94272.44;;;14.67;64.10
15444;BME280;7822;48.146;11.576;2023-03-31T05:15:00;94265.63;;;14.66;64.36
15444;BME280;7822;48.146;11.576;2023-03-31T05:17:30;94259.56;;;14.66;64.36
15444;BME280;7822;48.146;11.576;2023-03-31T05:19:58;94245.56;;;14.67;64.48
15444;BME280;7822;48.146;11.576;2023-03-31T05:22:26;94231.69;;;14.66;64.57
15444;BME280;7822;48.146;11.576;2023-03-31T05:24:54;94227.28;;;14.67;64.39
15444;BME280;7822;48.146;11.576;2023-03-31T05:27:21;94225.47;;;14.67;64.68
15444;BME280;7822;48.146;11.576;2023-03-31T05:29:50;94213.41;;;14.66;64.41
15444;BME280;7822;48.146;11.576;2023-03-31T05:32:18;94223.03;;;14.66;64.49
15444;BME280;7822;48.146;11.576;2023-03-31T05:34:45;94221.25;;;14.66;64.47
15444;BME280;7822;48.146;11.576;2023-03-31T05:37:17;94209.97;;;14.66;64.42
15444;BME280;7822;48.146;11.576;2023-03-31T05:39:45;94191.69;;;14.66;64.33
15444;BME280;7822;48.146;11.576;2023-03-31T05:42:12;94194.31;;;14.66;64.45
15444;BME280;7822;48.146;11.576;2023-03-31T05:44:40;94182.25;;;14.65;64.72
15444;BME280;7822;48.146;11.576;2023-03-31T05:47:09;94153.56;;;14.65;64.56
15444;BME280;7822;48.146;11.576;2023-03-31T05:49:37;94157.78;;;14.66;64.56
15444;BME280;7822;48.146;11.576;2023-03-31T05:52:05;94146.50;;;14.65;64.54
15444;BME280;7822;48.146;11.576;2023-03-31T05:54:33;94141.28;;;14.65;64.71
15444;BME280;7822;48.146;11.576;2023-03-31T05:57:02;94136.25;;;14.64;64.58
15444;BME280;7822;48.146;11.576;2023-03-31T05:59:32;94137.06;;;14.64;64.70
15444;BME280;7822;48.146;11.576;2023-03-31T06:02:02;94120.59;;;14.64;64.71
15444;BME280;7822;48.146;11.576;2023-03-31T06:04:34;94117.97;;;14.64;64.82
15444;BME280;7822;48.146;11.576;2023-03-31T06:07:03;94116.19;;;14.64;64.45
15444;BME280;7822;48.146;11.576;2023-03-31T06:09:32;94119.78;;;14.63;64.63
15444;BME280;7822;48.146;11.576;2023-03-31T06:12:01;94100.53;;;14.64;64.57
15444;BME280;7822;48.146;11.576;2023-03-31T06:14:31;94081.44;;;14.64;64.63
15444;BME280;7822;48.146;11.576;2023-03-31T06:17:00;94080.47;;;14.65;64.55
15444;BME280;7822;48.146;11.576;2023-03-31T06:19:29;94062.19;;;14.65;64.56
15444;BME280;7822;48.146;11.576;2023-03-31T06:22:00;94055.16;;;14.65;64.48
15444;BME280;7822;48.146;11.576;2023-03-31T06:24:29;94047.50;;;14.64;64.60
15444;BME280;7822;48.146;11.576;2023-03-31T06:26:58;94047.31;;;14.65;64.47
15444;BME280;7822;48.146;11.576;2023-03-31T06:29:27;94041.31;;;14.65;64.52
15444;BME280;7822;48.146;11.576;2023-03-31T06:31:56;94043.94;;;14.65;64.57
15444;BME280;7822;48.146;11.576;2023-03-31T06:34:26;94040.31;;;14.66;64.50
15444;BME280;7822;48.146;11.576;2023-03-31T06:36:55;94032.66;;;14.64;64.75
15444;BME280;7822;48.146;11.576;2023-03-31T06:39:25;94035.28;;;14.64;64.49
15444;BME280;7822;48.146;11.576;2023-03-31T06:41:54;94031.03;;;14.63;64.30
15444;BME280;7822;48.146;11.576;2023-03-31T06:44:23;94031.66;;;14.65;64.43
15444;BME280;7822;48.146;11.576;2023-03-31T06:46:52;94025.81;;;14.63;64.63
15444;BME280;7822;48.146;11.576;2023-03-31T06:49:21;94015.38;;;14.63;64.54
15444;BME280;7822;48.146;11.576;2023-03-31T06:51:51;94012.75;;;14.63;64.37
15444;BME280;7822;48.146;11.576;2023-03-31T06:54:20;94021.41;;;14.64;64.67
15444;BME280;7822;48.146;11.576;2023-03-31T06:56:50;94025.00;;;14.63;64.62
15444;BME280;7822;48.146;11.576;2023-03-31T06:59:19;94038.84;;;14.63;64.57
15444;BME280;7822;48.146;11.576;2023-03-31T07:01:48;94051.09;;;14.63;64.82
15444;BME280;7822;48.146;11.576;2023-03-31T07:04:18;94061.53;;;14.63;64.54
15444;BME280;7822;48.146;11.576;2023-03-31T07:06:47;94075.41;;;14.63;64.77
15444;BME280;7822;48.146;11.576;2023-03-31T07:09:16;94118.97;;;14.63;64.65
15444;BME280;7822;48.146;11.576;2023-03-31T07:11:47;94156.31;;;14.63;64.46
15444;BME280;7822;48.146;11.576;2023-03-31T07:14:17;94113.72;;;14.63;64.87
15444;BME280;7822;48.146;11.576;2023-03-31T07:16:46;94141.66;;;14.62;64.82
15444;BME280;7822;48.146;11.576;2023-03-31T07:19:16;94132.00;;;14.63;64.83
15444;BME280;7822;48.146;11.576;2023-03-31T07:21:45;94162.53;;;14.62;64.76
15444;BME280;7822;48.146;11.576;2023-03-31T07:24:14;94192.03;;;14.63;64.70
15444;BME280;7822;48.146;11.576;2023-03-31T07:26:43;94182.41;;;14.63;64.52
15444;BME280;7822;48.146;11.576;2023-03-31T07:29:13;94175.59;;;14.62;64.63
15444;BME280;7822;48.146;11.576;2023-03-31T07:31:46;94186.03;;;14.62;64.53
15444;BME280;7822;48.146;11.576;2023-03-31T07:34:15;94170.38;;;14.62;64.82
15444;BME280;7822;48.146;11.576;2023-03-31T07:36:44;94162.53;;;14.62;64.48
15444;BME280;7822;48.146;11.576;2023-03-31T07:39:13;94134.63;;;14.63;64.42
15444;BME280;7822;48.146;11.576;2023-03-31T07:41:42;94124.19;;;14.63;64.66
15444;BME280;7822;48.146;11.576;2023-03-31T07:44:11;94113.72;;;14.63;64.73
15444;BME280;7822;48.146;11.576;2023-03-31T07:46:40;94098.91;;;14.63;64.49
15444;BME280;7822;48.146;11.576;2023-03-31T07:49:11;94105.91;;;14.63;64.61
15444;BME280;7822;48.146;11.576;2023-03-31T07:51:42;94104.13;;;14.63;64.56
15444;BME280;7822;48.146;11.576;2023-03-31T07:54:11;94093.66;;;14.63;64.83
15444;BME280;7822;48.146;11.576;2023-03-31T07:56:40;94080.63;;;14.63;64.72
15444;BME280;7822;48.146;11.576;2023-03-31T07:59:09;94084.06;;;14.64;64.50
15444;BME280;7822;48.146;11.576;2023-03-31T08:01:38;94046.69;;;14.63;64.82
15444;BME280;7822;48.146;11.576;2023-03-31T08:04:08;94039.69;;;14.64;64.32
15444;BME280;7822;48.146;11.576;2023-03-31T08:06:39;94024.03;;;14.64;64.51
15444;BME280;7822;48.146;11.576;2023-03-31T08:09:08;94036.25;;;14.63;64.65
15444;BME280;7822;48.146;11.576;2023-03-31T08:11:37;94038.84;;;14.63;64.71
15444;BME280;7822;48.146;11.576;2023-03-31T08:14:07;94019.63;;;14.64;64.72
15444;BME280;7822;48.146;11.576;2023-03-31T08:16:36;94026.63;;;14.64;64.76
15444;BME280;7822;48.146;11.576;2023-03-31T08:19:06;94051.91;;;14.63;64.80
15444;BME280;7822;48.146;11.576;2023-03-31T08:21:35;94033.63;;;14.63;64.64
15444;BME280;7822;48.146;11.576;2023-03-31T08:24:06;94036.25;;;14.63;64.45
15444;BME280;7822;48.146;11.576;2023-03-31T08:26:35;94019.78;;;14.63;64.70
15444;BME280;7822;48.146;11.576;2023-03-31T08:29:04;94025.00;;;14.63;64.61
15444;BME280;7822;48.146;11.576;2023-03-31T08:31:33;94011.16;;;14.62;64.35
15444;BME280;7822;48.146;11.576;2023-03-31T08:34:02;94022.38;;;14.63;64.81
15444;BME280;7822;48.146;11.576;2023-03-31T08:36:32;94021.59;;;14.62;64.64
15444;BME280;7822;48.146;11.576;2023-03-31T08:39:01;94036.44;;;14.62;64.78
15444;BME280;7822;48.146;11.576;2023-03-31T08:41:41;94052.09;;;14.62;64.78
15444;BME280;7822;48.146;11.576;2023-03-31T08:44:15;94079.81;;;14.63;64.65
15444;BME280;7822;48.146;11.576;2023-03-31T08:46:44;94051.09;;;14.63;64.64
15444;BME280;7822;48.146;11.576;2023-03-31T08:49:16;94079.00;;;14.62;64.71
15444;BME280;7822;48.146;11.576;2023-03-31T08:51:50;94083.41;;;14.62;65.12
15444;BME280;7822;48.146;11.576;2023-03-31T08:54:27;94090.44;;;14.61;64.99
15444;BME280;7822;48.146;11.576;2023-03-31T08:57:01;94112.13;;;14.62;64.84
15444;BME280;7822;48.146;11.576;2023-03-31T08:59:33;94131.22;;;14.62;64.83
15444;BME280;7822;48.146;11.576;2023-03-31T09:02:10;94131.22;;;14.62;64.75
15444;BME280;7822;48.146;11.576;2023-03-31T09:04:54;94119.13;;;14.61;64.88
15444;BME280;7822;48.146;11.576;2023-03-31T09:07:32;94113.72;;;14.63;64.64
15444;BME280;7822;48.146;11.576;2023-03-31T09:10:19;94101.69;;;14.62;64.74
15444;BME280;7822;48.146;11.576;2023-03-31T09:12:56;94083.41;;;14.62;64.65
15444;BME280;7822;48.146;11.576;2023-03-31T09:15:28;94048.66;;;14.61;65.05
15444;BME280;7822;48.146;11.576;2023-03-31T09:18:16;94072.16;;;14.61;64.73
15444;BME280;7822;48.146;11.576;2023-03-31T09:20:47;94086.84;;;14.62;64.78
15444;BME280;7822;48.146;11.576;2023-03-31T09:23:23;94074.59;;;14.63;64.75
15444;BME280;7822;48.146;11.576;2023-03-31T09:25:54;94064.16;;;14.63;64.65
15444;BME280;7822;48.146;11.576;2023-03-31T09:28:30;94045.88;;;14.63;64.67
15444;BME280;7822;48.146;11.576;2023-03-31T09:31:02;94032.03;;;14.62;65.00
15444;BME280;7822;48.146;11.576;2023-03-31T09:33:31;94047.50;;;14.64;64.50
15444;BME280;7822;48.146;11.576;2023-03-31T09:35:59;94037.06;;;14.64;64.61
15444;BME280;7822;48.146;11.576;2023-03-31T09:38:27;94031.03;;;14.63;64.99
15444;BME280;7822;48.146;11.576;2023-03-31T09:40:57;94017.00;;;14.64;64.62
15444;BME280;7822;48.146;11.576;2023-03-31T09:43:28;94010.97;;;14.64;64.81
15444;BME280;7822;48.146;11.576;2023-03-31T09:45:56;94000.34;;;14.65;64.68
15444;BME280;7822;48.146;11.576;2023-03-31T09:48:47;93991.72;;;14.65;64.70
15444;BME280;7822;48.146;11.576;2023-03-31T09:51:19;93991.88;;;14.63;64.85
15444;BME280;7822;48.146;11.576;2023-03-31T09:53:52;93999.72;;;14.63;65.03
15444;BME280;7822;48.146;11.576;2023-03-31T09:56:34;94008.34;;;14.64;64.76
15444;BME280;7822;48.146;11.576;2023-03-31T09:59:14;94010.16;;;14.63;64.85
15444;BME280;7822;48.146;11.576;2023-03-31T10:01:44;94010.97;;;14.64;64.49
15444;BME280;7822;48.146;11.576;2023-03-31T10:04:18;94010.16;;;14.63;64.67
15444;BME280;7822;48.146;11.576;2023-03-31T10:06:47;94001.50;;;14.63;64.97
15444;BME280;7822;48.146;11.576;2023-03-31T10:09:15;94008.53;;;14.62;64.89
15444;BME280;7822;48.146;11.576;2023-03-31T10:11:54;94011.16;;;14.62;64.80
15444;BME280;7822;48.146;11.576;2023-03-31T10:14:31;94000.72;;;14.62;64.79
15444;BME280;7822;48.146;11.576;2023-03-31T10:17:03;93981.63;;;14.62;65.07
15444;BME280;7822;48.146;11.576;2023-03-31T10:19:34;93977.22;;;14.62;64.70
15444;BME280;7822;48.146;11.576;2023-03-31T10:22:04;93968.56;;;14.62;64.54
15444;BME280;7822;48.146;11.576;2023-03-31T10:24:37;93958.13;;;14.62;65.01
15444;BME280;7822;48.146;11.576;2023-03-31T10:27:10;93955.53;;;14.62;65.06
15444;BME280;7822;48.146;11.576;2023-03-31T10:29:41;93949.50;;;14.61;64.50
15444;BME280;7822;48.146;11.576;2023-03-31T10:32:16;93945.09;;;14.62;64.92
15444;BME280;7822;48.146;11.576;2023-03-31T10:34:45;93939.88;;;14.62;64.80
15444;BME280;7822;48.146;11.576;2023-03-31T10:37:15;93931.22;;;14.61;64.97
15444;BME280;7822;48.146;11.576;2023-03-31T10:39:44;93937.25;;;14.62;64.82
15444;BME280;7822;48.146;11.576;2023-03-31T10:42:19;93940.84;;;14.61;64.90
15444;BME280;7822;48.146;11.576;2023-03-31T10:44:49;93930.41;;;14.61;64.75
15444;BME280;7822;48.146;11.576;2023-03-31T10:47:18;93932.03;;;14.62;64.99
15444;BME280;7822;48.146;11.576;2023-03-31T10:49:49;93918.16;;;14.61;65.10
15444;BME280;7822;48.146;11.576;2023-03-31T10:52:20;93925.19;;;14.61;65.13
15444;BME280;7822;48.146;11.576;2023-03-31T10:54:50;93914.75;;;14.61;64.86
15444;BME280;7822;48.146;11.576;2023-03-31T10:57:26;93891.25;;;14.61;64.46
15444;BME280;7822;48.146;11.576;2023-03-31T11:00:11;93894.69;;;14.61;64.93
15444;BME280;7822;48.146;11.576;2023-03-31T11:05:40;93896.13;;;14.64;64.58
15444;BME280;7822;48.146;11.576;2023-03-31T11:08:21;93894.50;;;14.63;64.75
15444;BME280;7822;48.146;11.576;2023-03-31T11:11:06;93896.94;;;14.64;64.74
15444;BME280;7822;48.146;11.576;2023-03-31T11:13:40;93870.03;;;14.64;64.91
15444;BME280;7822;48.146;11.576;2023-03-31T11:16:17;93901.34;;;14.64;64.69
15444;BME280;7822;48.146;11.576;2023-03-31T11:18:59;93928.06;;;14.66;64.56
15444;BME280;7822;48.146;11.576;2023-03-31T11:21:37;93958.59;;;14.65;64.81
15444;BME280;7822;48.146;11.576;2023-03-31T11:24:15;94000.19;;;14.67;64.84
15444;BME280;7822;48.146;11.576;2023-03-31T11:26:49;93997.56;;;14.67;64.79
15444;BME280;7822;48.146;11.576;2023-03-31T11:29:29;94004.41;;;14.68;64.44
15444;BME280;7822;48.146;11.576;2023-03-31T11:32:14;93974.88;;;14.67;64.52
15444;BME280;7822;48.146;11.576;2023-03-31T11:34:54;93946.34;;;14.66;64.91
15444;BME280;7822;48.146;11.576;2023-03-31T11:37:38;93945.38;;;14.67;64.65
15444;BME280;7822;48.146;11.576;2023-03-31T11:40:29;93946.16;;;14.67;64.77
15444;BME280;7822;48.146;11.576;2023-03-31T11:43:01;93938.31;;;14.67;64.89
15444;BME280;7822;48.146;11.576;2023-03-31T11:45:34;93924.50;;;14.67;64.72
15444;BME280;7822;48.146;11.576;2023-03-31T11:48:09;93896.56;;;14.67;64.78
15444;BME280;7822;48.146;11.576;2023-03-31T11:50:44;93899.38;;;14.66;64.72
15444;BME280;7822;48.146;11.576;2023-03-31T11:53:16;93894.16;;;14.66;64.90
15444;BME280;7822;48.146;11.576;2023-03-31T11:55:47;93895.94;;;14.65;64.93
15444;BME280;7822;48.146;11.576;2023-03-31T11:58:20;93888.09;;;14.65;64.79
15444;BME280;7822;48.146;11.576;2023-03-31T12:00:52;93866.25;;;14.66;65.03
15444;BME280;7822;48.146;11.576;2023-03-31T12:03:30;93851.41;;;14.67;64.90
15444;BME280;7822;48.146;11.576;2023-03-31T12:06:02;93856.63;;;14.67;64.76
15444;BME280;7822;48.146;11.576;2023-03-31T12:08:36;93838.50;;;14.65;64.83
15444;BME280;7822;48.146;11.576;2023-03-31T12:11:08;93840.16;;;14.66;64.62
15444;BME280;7822;48.146;11.576;2023-03-31T12:13:43;93834.94;;;14.66;64.72
15444;BME280;7822;48.146;11.576;2023-03-31T12:16:14;93836.72;;;14.66;64.83
15444;BME280;7822;48.146;11.576;2023-03-31T12:18:56;93835.75;;;14.67;64.90
15444;BME280;7822;48.146;11.576;2023-03-31T12:21:28;93824.69;;;14.65;64.83
15444;BME280;7822;48.146;11.576;2023-03-31T12:23:57;93825.47;;;14.65;64.67
15444;BME280;7822;48.146;11.576;2023-03-31T12:26:34;93829.72;;;14.66;64.75
15444;BME280;7822;48.146;11.576;2023-03-31T12:29:15;93822.69;;;14.67;64.88
15444;BME280;7822;48.146;11.576;2023-03-31T12:31:49;93827.09;;;14.66;64.91
15444;BME280;7822;48.146;11.576;2023-03-31T12:34:20;93829.72;;;14.66;65.06
15444;BME280;7822;48.146;11.576;2023-03-31T12:37:03;93819.06;;;14.68;65.04
15444;BME280;7822;48.146;11.576;2023-03-31T12:39:43;93819.06;;;14.68;64.73
15444;BME280;7822;48.146;11.576;2023-03-31T12:42:35;93826.09;;;14.67;65.04
15444;BME280;7822;48.146;11.576;2023-03-31T12:45:14;93826.09;;;14.67;64.94
15444;BME280;7822;48.146;11.576;2023-03-31T12:48:04;93835.75;;;14.67;64.67
15444;BME280;7822;48.146;11.576;2023-03-31T12:50:50;93833.91;;;14.67;64.71
15444;BME280;7822;48.146;11.576;2023-03-31T12:53:25;93826.09;;;14.67;64.81
15444;BME280;7822;48.146;11.576;2023-03-31T12:55:57;93817.28;;;14.68;64.79
15444;BME280;7822;48.146;11.576;2023-03-31T12:58:36;93842.56;;;14.68;64.50
15444;BME280;7822;48.146;11.576;2023-03-31T13:01:07;93850.41;;;14.68;64.82
15444;BME280;7822;48.146;11.576;2023-03-31T13:03:45;93844.38;;;14.67;64.94
15444;BME280;7822;48.146;11.576;2023-03-31T13:09:43;93843.38;;;14.68;64.86
15444;BME280;7822;48.146;11.576;2023-03-31T13:12:16;93849.59;;;14.67;64.88
15444;BME280;7822;48.146;11.576;2023-03-31T13:14:46;93852.19;;;14.67;64.86
15444;BME280;7822;48.146;11.576;2023-03-31T13:17:23;93875.69;;;14.67;64.81
15444;BME280;7822;48.146;11.576;2023-03-31T13:19:51;93858.22;;;14.68;64.86
15444;BME280;7822;48.146;11.576;2023-03-31T13:22:32;93767.88;;;14.67;64.76
15444;BME280;7822;48.146;11.576;2023-03-31T13:25:43;93761.03;;;14.66;64.67
15444;BME280;7822;48.146;11.576;2023-03-31T13:28:17;93783.72;;;14.65;64.94
15444;BME280;7822;48.146;11.576;2023-03-31T13:30:55;93789.75;;;14.66;64.58
15444;BME280;7822;48.146;11.576;2023-03-31T13:33:27;93784.53;;;14.66;64.81
15444;BME280;7822;48.146;11.576;2023-03-31T13:36:22;93802.78;;;14.66;64.83
15444;BME280;7822;48.146;11.576;2023-03-31T13:39:18;93774.09;;;14.66;64.77
15444;BME280;7822;48.146;11.576;2023-03-31T13:42:02;93786.31;;;14.65;64.82